Time;durP1;ratioP1;P1;durP2;ratioP2;P2;SDS_P1;SDS_P2;PMS_P1;PMS_P2;Temp;Humidity;BMP_temperature;BMP_pressure;BME280_temperature;BME280_humidity;BME280_pressure;Samples;Min_cycle;Max_cycle;Signal;HPM_P1;HPM_P2
2022/07/25 00:00:09;;;;;;;12.30;9.88;;;;;;;;;;4994044;28;20128;-64
2022/07/25 00:02:55;;;;;;;15.15;10.07;;;;;;;;;;4992623;28;20210;-60
2022/07/25 00:05:40;;;;;;;12.30;10.18;;;;;;;;;;5010011;28;20041;-60
2022/07/25 00:08:26;;;;;;;13.52;10.35;;;;;;;;;;4982408;28;20331;-61
2022/07/25 00:11:12;;;;;;;11.20;9.15;;;;;;;;;;4991921;28;20038;-60
2022/07/25 00:13:57;;;;;;;12.90;9.82;;;;;;;;;;4993513;28;20125;-66
2022/07/25 00:16:43;;;;;;;12.77;10.88;;;;;;;;;;4993381;28;20034;-70
2022/07/25 00:19:29;;;;;;;11.20;9.55;;;;;;;;;;5025620;28;20525;-70
2022/07/25 00:22:15;;;;;;;11.75;9.18;;;;;;;;;;5017592;28;20033;-70
2022/07/25 00:25:00;;;;;;;13.23;9.90;;;;;;;;;;5034141;28;20391;-71
2022/07/25 00:27:46;;;;;;;13.85;9.65;;;;;;;;;;4999762;28;20033;-70
2022/07/25 00:30:31;;;;;;;12.07;10.02;;;;;;;;;;4992549;28;20034;-71
2022/07/25 00:33:17;;;;;;;12.68;9.07;;;;;;;;;;5002937;28;20062;-61
2022/07/25 00:36:03;;;;;;;11.68;10.07;;;;;;;;;;5014360;28;20069;-61
2022/07/25 00:38:48;;;;;;;12.90;9.13;;;;;;;;;;5004462;28;20741;-60
2022/07/25 00:41:34;;;;;;;10.82;9.20;;;;;;;;;;5013639;28;20542;-60
2022/07/25 00:44:21;;;;;;;13.18;8.52;;;;;;;;;;5007379;28;20137;-60
2022/07/25 00:47:06;;;;;;;10.88;9.07;;;;;;;;;;5012448;28;20032;-60
2022/07/25 00:49:52;;;;;;;10.60;8.90;;;;;;;;;;5021204;28;20123;-61
2022/07/25 00:52:37;;;;;;;12.75;9.90;;;;;;;;;;5018591;28;20415;-66
2022/07/25 00:55:23;;;;;;;12.43;9.48;;;;;;;;;;5002349;28;20419;-66
2022/07/25 00:58:09;;;;;;;10.77;9.35;;;;;;;;;;5014712;28;20142;-65
2022/07/25 01:00:55;;;;;;;12.23;10.35;;;;;;;;;;5014128;28;20037;-66
2022/07/25 01:03:40;;;;;;;13.30;10.63;;;;;;;;;;5012998;28;20060;-66
2022/07/25 01:06:26;;;;;;;11.60;9.13;;;;;;;;;;5035195;28;20028;-66
2022/07/25 01:09:12;;;;;;;11.93;9.98;;;;;;;;;;5028982;28;20041;-73
2022/07/25 01:11:58;;;;;;;11.07;9.40;;;;;;;;;;5030416;28;20138;-67
2022/07/25 01:14:43;;;;;;;11.75;9.80;;;;;;;;;;5034082;28;20021;-67
2022/07/25 01:17:29;;;;;;;12.07;9.85;;;;;;;;;;5031001;28;20033;-67
2022/07/25 01:20:14;;;;;;;11.45;9.48;;;;;;;;;;5028729;28;20439;-66
2022/07/25 01:23:00;;;;;;;12.85;10.38;;;;;;;;;;5035333;28;20072;-66
2022/07/25 01:25:46;;;;;;;12.20;9.57;;;;;;;;;;5010733;28;20041;-67
2022/07/25 01:28:31;;;;;;;11.57;9.25;;;;;;;;;;5025995;28;20040;-73
2022/07/25 01:31:17;;;;;;;10.60;9.18;;;;;;;;;;5016315;28;20348;-66
2022/07/25 01:34:02;;;;;;;11.30;9.55;;;;;;;;;;5029526;28;20033;-65
2022/07/25 01:36:48;;;;;;;12.00;9.57;;;;;;;;;;5036936;28;20067;-63
2022/07/25 01:39:34;;;;;;;12.98;10.65;;;;;;;;;;5026388;28;20126;-65
2022/07/25 01:42:19;;;;;;;12.13;10.32;;;;;;;;;;5037539;28;20108;-65
2022/07/25 01:45:05;;;;;;;11.07;9.70;;;;;;;;;;5007333;28;20877;-72
2022/07/25 01:47:51;;;;;;;12.60;9.45;;;;;;;;;;5017395;28;20090;-64
2022/07/25 01:50:36;;;;;;;12.02;9.50;;;;;;;;;;5017705;28;20049;-65
2022/07/25 01:53:22;;;;;;;11.15;9.57;;;;;;;;;;5009866;28;20060;-66
2022/07/25 01:56:08;;;;;;;9.95;8.63;;;;;;;;;;5005134;28;20038;-65
2022/07/25 01:58:53;;;;;;;10.32;8.70;;;;;;;;;;5011785;28;20033;-65
2022/07/25 02:01:39;;;;;;;11.88;9.48;;;;;;;;;;5019622;28;20025;-65
2022/07/25 02:04:24;;;;;;;12.93;9.90;;;;;;;;;;4985038;28;20037;-66
2022/07/25 02:07:10;;;;;;;12.23;10.30;;;;;;;;;;5003504;28;20021;-59
2022/07/25 02:09:56;;;;;;;13.00;9.55;;;;;;;;;;5024521;28;20091;-60
2022/07/25 02:12:41;;;;;;;11.90;9.77;;;;;;;;;;5014709;28;20025;-61
2022/07/25 02:15:27;;;;;;;10.70;9.10;;;;;;;;;;5005568;28;20053;-60
2022/07/25 02:18:12;;;;;;;13.82;10.23;;;;;;;;;;5010488;28;20034;-60
2022/07/25 02:20:58;;;;;;;12.07;9.63;;;;;;;;;;5022913;28;20052;-60
2022/07/25 02:23:44;;;;;;;11.88;9.20;;;;;;;;;;5024878;28;20083;-65
2022/07/25 02:26:29;;;;;;;12.35;9.95;;;;;;;;;;5029947;28;20033;-65
2022/07/25 02:29:15;;;;;;;14.50;10.15;;;;;;;;;;5025837;28;20041;-63
2022/07/25 02:32:01;;;;;;;12.55;9.50;;;;;;;;;;5035868;28;20064;-67
2022/07/25 02:34:46;;;;;;;11.45;9.65;;;;;;;;;;5033532;28;20426;-64
2022/07/25 02:37:32;;;;;;;13.98;10.07;;;;;;;;;;5018910;28;20032;-65
2022/07/25 02:40:18;;;;;;;13.52;10.05;;;;;;;;;;5034826;28;20079;-61
2022/07/25 02:43:03;;;;;;;12.15;9.80;;;;;;;;;;5030878;28;20037;-64
2022/07/25 02:45:49;;;;;;;11.68;9.18;;;;;;;;;;5016881;28;20052;-64
2022/07/25 02:48:35;;;;;;;16.40;9.38;;;;;;;;;;5022615;28;20471;-65
2022/07/25 02:51:20;;;;;;;12.68;9.50;;;;;;;;;;5029625;28;20033;-64
2022/07/25 02:54:06;;;;;;;11.40;9.63;;;;;;;;;;5024792;28;21326;-66
2022/07/25 02:56:51;;;;;;;14.40;10.30;;;;;;;;;;4987625;28;20038;-65
2022/07/25 02:59:37;;;;;;;11.32;9.77;;;;;;;;;;4996433;28;20091;-66
2022/07/25 03:02:23;;;;;;;11.82;9.25;;;;;;;;;;5015946;28;20033;-59
2022/07/25 03:05:09;;;;;;;13.20;10.23;;;;;;;;;;5002700;28;20037;-60
2022/07/25 03:07:55;;;;;;;12.73;10.63;;;;;;;;;;5016876;28;20025;-61
2022/07/25 03:10:40;;;;;;;12.75;9.05;;;;;;;;;;5032278;28;20090;-60
2022/07/25 03:13:26;;;;;;;14.60;9.63;;;;;;;;;;5031111;28;20064;-61
2022/07/25 03:16:11;;;;;;;11.90;9.80;;;;;;;;;;5009972;28;20046;-60
2022/07/25 03:18:57;;;;;;;13.15;9.90;;;;;;;;;;5003062;28;20419;-64
2022/07/25 03:21:44;;;;;;;11.15;9.40;;;;;;;;;;5026429;28;20475;-67
2022/07/25 03:24:29;;;;;;;14.82;10.15;;;;;;;;;;4994130;28;20051;-65
2022/07/25 03:27:15;;;;;;;12.85;9.85;;;;;;;;;;4997287;28;20053;-65
2022/07/25 03:30:01;;;;;;;12.10;9.75;;;;;;;;;;5002196;28;20034;-67
2022/07/25 03:32:46;;;;;;;10.75;9.07;;;;;;;;;;5018153;28;20029;-66
2022/07/25 03:35:32;;;;;;;12.48;9.38;;;;;;;;;;5018866;28;20036;-67
2022/07/25 03:38:18;;;;;;;11.38;8.77;;;;;;;;;;5019635;28;20039;-64
2022/07/25 03:41:03;;;;;;;11.93;10.07;;;;;;;;;;5037499;28;20052;-65
2022/07/25 03:43:49;;;;;;;10.98;9.32;;;;;;;;;;5019764;28;20017;-66
2022/07/25 03:46:34;;;;;;;12.75;9.07;;;;;;;;;;4993242;28;20062;-64
2022/07/25 03:49:20;;;;;;;11.80;9.30;;;;;;;;;;4975756;28;20049;-64
2022/07/25 03:52:06;;;;;;;13.15;9.70;;;;;;;;;;5007478;28;20045;-64
2022/07/25 03:54:51;;;;;;;9.98;7.93;;;;;;;;;;5006049;28;20032;-66
2022/07/25 03:57:37;;;;;;;11.52;9.35;;;;;;;;;;4995657;28;20473;-65
2022/07/25 04:00:23;;;;;;;12.70;9.38;;;;;;;;;;5000891;28;20044;-64
2022/07/25 04:03:08;;;;;;;13.38;9.15;;;;;;;;;;4999358;28;20799;-65
2022/07/25 04:05:54;;;;;;;11.55;8.55;;;;;;;;;;5020163;28;20112;-66
2022/07/25 04:08:39;;;;;;;10.85;8.77;;;;;;;;;;5038249;28;20025;-66
2022/07/25 04:11:26;;;;;;;11.85;9.10;;;;;;;;;;5026533;28;20123;-66
2022/07/25 04:14:13;;;;;;;11.60;8.63;;;;;;;;;;5018561;28;20030;-72
2022/07/25 04:16:58;;;;;;;13.85;9.25;;;;;;;;;;4993405;28;20051;-73
2022/07/25 04:19:44;;;;;;;19.65;9.98;;;;;;;;;;5002215;28;20124;-73
2022/07/25 04:22:30;;;;;;;15.15;8.80;;;;;;;;;;5006471;28;20046;-73
2022/07/25 04:25:16;;;;;;;11.07;8.98;;;;;;;;;;5035018;28;20473;-72
2022/07/25 04:28:02;;;;;;;12.25;8.45;;;;;;;;;;5021671;28;20079;-72
2022/07/25 04:30:47;;;;;;;12.15;8.25;;;;;;;;;;5034943;28;20036;-61
2022/07/25 04:33:37;;;;;;;12.57;8.52;;;;;;;;;;5026261;28;20029;-63
2022/07/25 04:36:22;;;;;;;10.57;8.45;;;;;;;;;;5018100;28;20048;-60
2022/07/25 04:39:08;;;;;;;14.40;9.13;;;;;;;;;;5018456;28;23456;-60
2022/07/25 04:41:53;;;;;;;12.55;9.30;;;;;;;;;;5004439;28;20556;-61
2022/07/25 04:44:39;;;;;;;13.30;9.07;;;;;;;;;;4996771;28;20048;-61
2022/07/25 04:47:24;;;;;;;13.63;9.32;;;;;;;;;;4995156;28;20487;-60
2022/07/25 04:50:10;;;;;;;12.65;9.50;;;;;;;;;;4985759;28;20128;-64
2022/07/25 04:52:56;;;;;;;11.73;8.55;;;;;;;;;;5025620;28;20037;-66
2022/07/25 04:55:42;;;;;;;9.90;8.43;;;;;;;;;;5017817;28;20069;-65
2022/07/25 04:58:27;;;;;;;12.18;8.63;;;;;;;;;;5020048;28;20028;-64
2022/07/25 05:01:13;;;;;;;11.68;9.13;;;;;;;;;;5018717;28;20048;-64
2022/07/25 05:03:59;;;;;;;12.23;8.13;;;;;;;;;;5001248;28;20294;-64
2022/07/25 05:06:44;;;;;;;13.20;8.52;;;;;;;;;;5005285;28;20453;-62
2022/07/25 05:09:30;;;;;;;10.52;8.90;;;;;;;;;;4992948;28;20035;-59
2022/07/25 05:12:15;;;;;;;12.20;9.07;;;;;;;;;;5014196;28;20037;-61
2022/07/25 05:15:02;;;;;;;11.15;8.75;;;;;;;;;;4987651;28;20050;-59
2022/07/25 05:17:48;;;;;;;11.48;8.70;;;;;;;;;;5004317;28;20120;-58
2022/07/25 05:20:33;;;;;;;10.80;8.82;;;;;;;;;;5015436;28;20069;-60
2022/07/25 05:23:19;;;;;;;12.13;8.70;;;;;;;;;;4995312;28;20039;-60
2022/07/25 05:26:05;;;;;;;12.68;8.90;;;;;;;;;;4983720;28;20068;-68
2022/07/25 05:28:50;;;;;;;14.25;9.90;;;;;;;;;;5010421;28;20061;-59
2022/07/25 05:31:36;;;;;;;12.30;9.30;;;;;;;;;;4998167;28;20489;-59
2022/07/25 05:34:21;;;;;;;12.38;9.45;;;;;;;;;;4977299;28;20081;-59
2022/07/25 05:37:07;;;;;;;11.63;9.23;;;;;;;;;;5001109;28;20033;-61
2022/07/25 05:39:52;;;;;;;14.30;8.43;;;;;;;;;;4995218;28;20063;-61
2022/07/25 05:42:38;;;;;;;12.60;9.48;;;;;;;;;;4995655;28;20038;-61
2022/07/25 05:45:24;;;;;;;12.70;9.38;;;;;;;;;;4991462;28;20089;-59
2022/07/25 05:48:09;;;;;;;12.23;8.68;;;;;;;;;;5009038;28;20037;-61
2022/07/25 05:50:55;;;;;;;13.63;8.93;;;;;;;;;;5031671;28;20044;-61
2022/07/25 05:53:41;;;;;;;11.25;8.40;;;;;;;;;;5004286;28;20029;-61
2022/07/25 05:56:28;;;;;;;12.75;8.45;;;;;;;;;;5012179;28;20037;-61
2022/07/25 05:59:14;;;;;;;11.15;8.57;;;;;;;;;;5022898;28;20037;-59
2022/07/25 06:02:01;;;;;;;11.75;9.43;;;;;;;;;;5028678;28;20069;-63
2022/07/25 06:04:46;;;;;;;13.88;9.48;;;;;;;;;;5029550;28;20021;-70
2022/07/25 06:07:32;;;;;;;15.38;9.45;;;;;;;;;;5024617;28;20037;-60
2022/07/25 06:10:17;;;;;;;12.25;8.38;;;;;;;;;;5017797;28;20061;-62
2022/07/25 06:13:03;;;;;;;11.70;8.85;;;;;;;;;;5015526;28;20112;-60
2022/07/25 06:15:49;;;;;;;18.65;10.93;;;;;;;;;;5033908;28;20064;-60
2022/07/25 06:18:34;;;;;;;15.18;9.48;;;;;;;;;;5029034;28;20496;-59
2022/07/25 06:21:20;;;;;;;13.02;9.65;;;;;;;;;;5030543;28;20021;-65
2022/07/25 06:24:06;;;;;;;15.75;9.02;;;;;;;;;;5026457;28;20141;-65
2022/07/25 06:26:51;;;;;;;13.00;9.43;;;;;;;;;;5009485;28;20167;-64
2022/07/25 06:29:37;;;;;;;25.80;10.93;;;;;;;;;;5018576;28;20120;-64
2022/07/25 06:32:23;;;;;;;27.55;12.00;;;;;;;;;;5008404;28;20041;-64
2022/07/25 06:35:09;;;;;;;22.55;10.93;;;;;;;;;;5005770;28;20052;-65
2022/07/25 06:37:54;;;;;;;21.80;11.48;;;;;;;;;;5020609;28;20049;-65
2022/07/25 06:40:40;;;;;;;14.60;9.18;;;;;;;;;;5027920;28;20021;-60
2022/07/25 06:43:25;;;;;;;18.98;9.88;;;;;;;;;;5026717;28;20120;-72
2022/07/25 06:46:11;;;;;;;20.25;10.40;;;;;;;;;;5011042;28;20392;-74
2022/07/25 06:48:57;;;;;;;14.57;9.02;;;;;;;;;;5027532;28;20024;-73
2022/07/25 06:51:42;;;;;;;22.08;11.77;;;;;;;;;;5037031;28;20039;-72
2022/07/25 06:54:28;;;;;;;21.45;11.57;;;;;;;;;;5021744;28;20029;-72
2022/07/25 06:57:14;;;;;;;22.50;10.93;;;;;;;;;;5034153;28;20037;-71
2022/07/25 07:00:00;;;;;;;14.65;9.18;;;;;;;;;;5033259;28;20037;-61
2022/07/25 07:02:46;;;;;;;12.27;8.65;;;;;;;;;;5026520;28;20032;-60
2022/07/25 07:05:33;;;;;;;21.55;11.50;;;;;;;;;;5016462;28;20040;-61
2022/07/25 07:08:19;;;;;;;17.52;10.25;;;;;;;;;;5009178;28;20045;-60
2022/07/25 07:11:05;;;;;;;18.52;9.85;;;;;;;;;;5011797;28;20045;-60
2022/07/25 07:13:50;;;;;;;13.73;8.60;;;;;;;;;;5020673;28;20074;-61
2022/07/25 07:16:36;;;;;;;9.20;7.20;;;;;;;;;;5011919;28;20037;-65
2022/07/25 07:19:22;;;;;;;15.23;9.20;;;;;;;;;;4998305;28;20376;-61
2022/07/25 07:22:07;;;;;;;11.90;8.38;;;;;;;;;;5007465;28;20025;-60
2022/07/25 07:24:53;;;;;;;12.10;7.97;;;;;;;;;;5016720;28;20168;-62
2022/07/25 07:27:38;;;;;;;10.13;7.70;;;;;;;;;;5007872;28;20385;-62
2022/07/25 07:30:24;;;;;;;10.02;7.28;;;;;;;;;;5012798;28;20042;-61
2022/07/25 07:33:10;;;;;;;11.32;8.10;;;;;;;;;;5022563;28;20472;-63
2022/07/25 07:35:55;;;;;;;8.65;7.50;;;;;;;;;;4998082;28;20116;-66
2022/07/25 07:38:43;;;;;;;14.73;9.60;;;;;;;;;;4981035;28;20559;-61
2022/07/25 07:41:28;;;;;;;11.30;7.78;;;;;;;;;;4993215;28;20382;-61
2022/07/25 07:44:14;;;;;;;12.05;7.85;;;;;;;;;;5026289;28;20486;-61
2022/07/25 07:47:01;;;;;;;11.43;8.50;;;;;;;;;;5022115;28;20068;-61
2022/07/25 07:49:47;;;;;;;14.40;8.05;;;;;;;;;;5032830;28;20025;-61
2022/07/25 07:52:32;;;;;;;11.77;7.93;;;;;;;;;;5007941;28;20065;-75
2022/07/25 07:58:22;;;;;;;9.48;7.57;;;;;;;;;;4998513;28;20488;-68
2022/07/25 08:01:08;;;;;;;9.13;7.10;;;;;;;;;;4984218;28;20455;-68
2022/07/25 08:03:53;;;;;;;8.77;7.55;;;;;;;;;;4967852;28;20105;-68
2022/07/25 08:06:41;;;;;;;10.57;7.45;;;;;;;;;;4984162;28;20460;-67
2022/07/25 08:09:27;;;;;;;11.20;7.53;;;;;;;;;;5007684;28;20038;-67
2022/07/25 08:12:12;;;;;;;9.02;7.68;;;;;;;;;;4995798;28;20505;-75
2022/07/25 08:14:58;;;;;;;11.00;8.77;;;;;;;;;;5000550;28;20507;-78
2022/07/25 08:17:45;;;;;;;9.10;8.20;;;;;;;;;;4985870;28;20473;-74
2022/07/25 08:20:30;;;;;;;9.25;7.93;;;;;;;;;;4976883;28;20389;-75
2022/07/25 08:23:16;;;;;;;9.50;7.88;;;;;;;;;;5004316;28;20228;-75
2022/07/25 08:26:02;;;;;;;8.50;7.25;;;;;;;;;;4986962;28;20029;-76
2022/07/25 08:28:48;;;;;;;13.25;6.75;;;;;;;;;;4998477;28;20041;-77
2022/07/25 08:31:34;;;;;;;8.75;7.22;;;;;;;;;;5003608;28;20054;-73
2022/07/25 08:34:21;;;;;;;9.80;7.90;;;;;;;;;;4996625;28;20036;-74
2022/07/25 08:37:06;;;;;;;8.88;7.18;;;;;;;;;;5009891;28;20080;-73
2022/07/25 08:39:52;;;;;;;11.32;6.50;;;;;;;;;;5014164;28;20030;-74
2022/07/25 08:42:38;;;;;;;10.15;6.38;;;;;;;;;;5019550;28;20445;-74
2022/07/25 08:45:25;;;;;;;8.80;7.07;;;;;;;;;;5016745;28;20033;-73
2022/07/25 08:48:11;;;;;;;9.13;7.53;;;;;;;;;;5015323;28;20025;-74
2022/07/25 08:50:58;;;;;;;8.85;7.35;;;;;;;;;;5002058;28;20509;-73
2022/07/25 08:53:43;;;;;;;8.48;6.88;;;;;;;;;;5007569;28;20503;-72
2022/07/25 08:56:29;;;;;;;8.48;7.35;;;;;;;;;;5007934;28;20503;-73
2022/07/25 08:59:15;;;;;;;9.18;6.75;;;;;;;;;;5021560;28;20037;-73
2022/07/25 09:02:05;;;;;;;9.85;7.72;;;;;;;;;;5023257;28;20040;-77
2022/07/25 09:04:51;;;;;;;9.93;7.18;;;;;;;;;;5032415;28;20064;-74
2022/07/25 09:07:37;;;;;;;8.82;7.05;;;;;;;;;;5027208;28;20475;-77
2022/07/25 09:10:24;;;;;;;8.48;7.10;;;;;;;;;;5035700;28;20025;-68
2022/07/25 09:13:14;;;;;;;8.30;7.20;;;;;;;;;;5027642;28;20041;-69
2022/07/25 09:15:59;;;;;;;8.85;7.38;;;;;;;;;;5005218;28;20428;-68
2022/07/25 09:18:45;;;;;;;8.25;6.95;;;;;;;;;;5015912;28;20033;-68
2022/07/25 09:21:30;;;;;;;7.90;7.10;;;;;;;;;;5020832;28;20032;-70
2022/07/25 09:24:17;;;;;;;10.95;7.05;;;;;;;;;;5024828;28;20492;-70
2022/07/25 09:27:08;;;;;;;9.27;6.85;;;;;;;;;;5038439;28;20040;-77
2022/07/25 09:29:54;;;;;;;10.95;7.57;;;;;;;;;;5034266;28;20469;-72
2022/07/25 09:32:40;;;;;;;8.43;6.82;;;;;;;;;;5026048;28;20189;-74
2022/07/25 09:35:33;;;;;;;9.65;7.15;;;;;;;;;;5032744;28;20558;-73
2022/07/25 09:38:19;;;;;;;11.68;8.48;;;;;;;;;;5027853;28;20040;-72
2022/07/25 09:41:06;;;;;;;8.43;7.53;;;;;;;;;;5029808;28;20064;-70
2022/07/25 09:43:52;;;;;;;8.30;6.28;;;;;;;;;;5037158;28;20029;-75
2022/07/25 09:46:37;;;;;;;9.45;6.53;;;;;;;;;;5025895;28;20048;-73
2022/07/25 09:49:24;;;;;;;8.88;7.32;;;;;;;;;;5023255;28;20033;-74
2022/07/25 09:52:10;;;;;;;9.15;6.97;;;;;;;;;;5024466;28;20033;-74
2022/07/25 09:54:56;;;;;;;7.80;6.80;;;;;;;;;;5027725;28;20034;-73
2022/07/25 09:57:43;;;;;;;9.75;7.10;;;;;;;;;;5000551;28;20080;-74
2022/07/25 10:00:30;;;;;;;11.05;7.18;;;;;;;;;;5015419;28;20034;-74
2022/07/25 10:03:34;;;;;;;8.77;7.25;;;;;;;;;;5009446;28;20052;-79
2022/07/25 10:06:23;;;;;;;12.02;7.55;;;;;;;;;;4992057;28;20049;-76
2022/07/25 10:09:12;;;;;;;9.40;7.07;;;;;;;;;;5001976;28;20120;-74
2022/07/25 10:12:11;;;;;;;9.52;7.25;;;;;;;;;;5026703;28;21307;-74
2022/07/25 10:15:11;;;;;;;8.50;6.72;;;;;;;;;;5015558;28;20040;-75
2022/07/25 10:18:05;;;;;;;8.65;7.05;;;;;;;;;;5036093;28;20029;-75
2022/07/25 10:20:52;;;;;;;9.93;7.55;;;;;;;;;;5030399;28;20257;-76
2022/07/25 10:23:38;;;;;;;12.93;7.90;;;;;;;;;;5000351;28;20102;-73
2022/07/25 10:26:24;;;;;;;12.43;8.60;;;;;;;;;;4999584;28;20454;-69
2022/07/25 10:29:10;;;;;;;17.90;12.30;;;;;;;;;;5011283;28;20037;-69
2022/07/25 10:32:03;;;;;;;11.85;7.43;;;;;;;;;;5011147;28;20185;-73
2022/07/25 10:34:53;;;;;;;8.57;7.28;;;;;;;;;;4984071;28;20022;-72
2022/07/25 10:37:38;;;;;;;9.25;6.53;;;;;;;;;;5024145;28;20024;-73
2022/07/25 10:40:25;;;;;;;9.40;7.20;;;;;;;;;;4991633;28;20461;-75
2022/07/25 10:43:18;;;;;;;9.65;7.10;;;;;;;;;;5010492;28;20060;-73
2022/07/25 10:46:12;;;;;;;7.95;6.50;;;;;;;;;;5032179;28;20036;-74
2022/07/25 10:48:58;;;;;;;10.18;6.97;;;;;;;;;;5029971;28;20500;-76
2022/07/25 10:51:53;;;;;;;10.80;7.00;;;;;;;;;;5035754;28;20098;-72
2022/07/25 10:54:39;;;;;;;8.45;6.60;;;;;;;;;;5025707;28;20032;-73
2022/07/25 10:57:25;;;;;;;9.57;6.10;;;;;;;;;;5029825;28;20110;-75
2022/07/25 11:00:11;;;;;;;9.60;6.30;;;;;;;;;;4998927;28;20037;-70
2022/07/25 11:02:56;;;;;;;7.38;6.57;;;;;;;;;;4994273;28;20041;-78
2022/07/25 11:05:46;;;;;;;8.68;6.53;;;;;;;;;;5010363;28;20465;-76
2022/07/25 11:08:32;;;;;;;10.18;6.47;;;;;;;;;;4985267;28;20060;-77
2022/07/25 11:11:18;;;;;;;9.32;6.93;;;;;;;;;;4991384;28;20112;-76
2022/07/25 11:14:04;;;;;;;8.57;6.80;;;;;;;;;;5000138;28;20029;-75
2022/07/25 11:16:51;;;;;;;10.10;7.20;;;;;;;;;;5015017;28;20034;-74
2022/07/25 11:19:36;;;;;;;10.60;7.18;;;;;;;;;;5005915;28;20117;-77
2022/07/25 11:22:23;;;;;;;8.15;7.10;;;;;;;;;;5016601;28;20045;-77
2022/07/25 11:25:13;;;;;;;9.95;7.05;;;;;;;;;;5000144;28;20026;-77
2022/07/25 11:27:59;;;;;;;8.80;6.55;;;;;;;;;;4985029;28;20110;-78
2022/07/25 11:30:45;;;;;;;10.20;7.05;;;;;;;;;;4997109;28;20401;-79
2022/07/25 11:33:31;;;;;;;10.52;7.05;;;;;;;;;;4962321;28;20040;-77
2022/07/25 11:36:17;;;;;;;7.57;6.30;;;;;;;;;;4996291;28;20511;-74
2022/07/25 11:39:02;;;;;;;6.53;5.63;;;;;;;;;;4988941;28;20095;-76
2022/07/25 11:41:57;;;;;;;8.25;6.05;;;;;;;;;;4993542;28;20027;-75
2022/07/25 11:44:42;;;;;;;8.25;5.90;;;;;;;;;;5011481;28;20507;-76
2022/07/25 11:47:29;;;;;;;13.25;7.93;;;;;;;;;;5011651;28;20029;-70
2022/07/25 11:50:15;;;;;;;6.57;5.90;;;;;;;;;;4996654;28;20028;-73
2022/07/25 11:53:06;;;;;;;7.22;5.57;;;;;;;;;;5019711;28;20037;-69
2022/07/25 11:55:51;;;;;;;8.30;5.20;;;;;;;;;;5024778;28;20041;-68
2022/07/25 11:58:37;;;;;;;4.40;3.67;;;;;;;;;;4998352;28;20068;-69
2022/07/25 12:01:23;;;;;;;6.28;4.75;;;;;;;;;;5015635;28;20033;-70
2022/07/25 12:04:16;;;;;;;6.57;3.60;;;;;;;;;;5003514;28;20026;-70
2022/07/25 12:07:03;;;;;;;5.47;3.75;;;;;;;;;;5012678;28;20036;-69
2022/07/25 12:09:55;;;;;;;4.32;3.70;;;;;;;;;;4969079;28;20454;-69
2022/07/25 12:12:42;;;;;;;4.65;3.85;;;;;;;;;;4956559;28;20053;-70
2022/07/25 12:15:38;;;;;;;4.10;3.67;;;;;;;;;;4948905;28;20039;-68
2022/07/25 12:18:23;;;;;;;4.15;3.72;;;;;;;;;;4961966;28;20137;-69
2022/07/25 12:21:09;;;;;;;7.03;4.03;;;;;;;;;;4968496;28;20031;-69
2022/07/25 12:23:54;;;;;;;7.32;4.47;;;;;;;;;;4967310;28;20030;-69
2022/07/25 12:26:40;;;;;;;4.72;3.92;;;;;;;;;;4990663;28;20608;-69
2022/07/25 12:29:26;;;;;;;5.00;3.70;;;;;;;;;;4994718;28;20388;-73
2022/07/25 12:32:11;;;;;;;5.60;3.60;;;;;;;;;;4977597;28;20034;-66
2022/07/25 12:34:57;;;;;;;7.03;4.30;;;;;;;;;;5006149;28;20026;-72
2022/07/25 12:37:43;;;;;;;4.68;4.10;;;;;;;;;;4998364;28;20037;-70
2022/07/25 12:40:28;;;;;;;5.07;4.25;;;;;;;;;;5028700;28;20559;-72
2022/07/25 12:43:14;;;;;;;6.82;5.07;;;;;;;;;;5012949;28;20037;-73
2022/07/25 12:46:00;;;;;;;8.98;5.28;;;;;;;;;;4999331;28;20382;-72
2022/07/25 12:48:46;;;;;;;8.55;6.20;;;;;;;;;;4982744;28;20030;-75
2022/07/25 12:51:31;;;;;;;7.50;5.15;;;;;;;;;;5000409;28;20088;-73
2022/07/25 12:54:17;;;;;;;8.07;5.43;;;;;;;;;;5010705;28;20709;-72
2022/07/25 12:57:02;;;;;;;8.98;5.70;;;;;;;;;;4964633;28;20046;-73
2022/07/25 12:59:48;;;;;;;7.80;5.90;;;;;;;;;;4963970;28;20031;-73
2022/07/25 13:02:34;;;;;;;8.73;5.63;;;;;;;;;;4983412;28;20026;-75
2022/07/25 13:05:20;;;;;;;7.43;5.68;;;;;;;;;;4976292;28;20041;-74
2022/07/25 13:08:06;;;;;;;7.25;5.50;;;;;;;;;;5018919;28;20029;-74
2022/07/25 13:10:51;;;;;;;7.30;5.65;;;;;;;;;;5018934;28;20065;-70
2022/07/25 13:13:37;;;;;;;7.25;5.50;;;;;;;;;;4999185;28;20059;-70
2022/07/25 13:16:23;;;;;;;6.47;5.15;;;;;;;;;;5035576;28;20045;-70
2022/07/25 13:19:09;;;;;;;4.97;4.50;;;;;;;;;;5010313;28;20482;-70
2022/07/25 13:21:54;;;;;;;8.57;5.30;;;;;;;;;;5033152;28;20025;-70
2022/07/25 13:24:40;;;;;;;5.35;4.55;;;;;;;;;;5026183;28;20032;-71
2022/07/25 13:27:25;;;;;;;6.45;4.85;;;;;;;;;;5028635;28;20069;-68
2022/07/25 13:30:13;;;;;;;6.28;5.00;;;;;;;;;;5037014;28;20044;-73
2022/07/25 13:32:58;;;;;;;6.75;4.60;;;;;;;;;;5030736;28;20060;-73
2022/07/25 13:35:44;;;;;;;8.85;4.88;;;;;;;;;;5026115;28;20589;-71
2022/07/25 13:38:30;;;;;;;5.53;4.90;;;;;;;;;;4997012;28;20065;-71
2022/07/25 13:41:15;;;;;;;5.75;4.85;;;;;;;;;;5030183;28;20032;-71
2022/07/25 13:44:01;;;;;;;7.15;5.60;;;;;;;;;;5032668;28;20422;-71
2022/07/25 13:46:49;;;;;;;7.40;5.78;;;;;;;;;;5012209;28;20530;-72
2022/07/25 13:49:35;;;;;;;;;;;;;;;;;;4993167;28;20449;-72
2022/07/25 13:52:21;;;;;;;6.40;5.03;;;;;;;;;;4994399;28;20009;-72
2022/07/25 13:55:07;;;;;;;8.30;5.25;;;;;;;;;;4988307;28;20062;-72
2022/07/25 13:57:52;;;;;;;7.68;5.55;;;;;;;;;;5015584;28;20044;-71
2022/07/25 14:00:39;;;;;;;6.97;5.53;;;;;;;;;;4986162;28;20432;-71
2022/07/25 14:03:24;;;;;;;8.38;5.35;;;;;;;;;;4975440;28;20038;-74
2022/07/25 14:06:10;;;;;;;5.53;4.97;;;;;;;;;;4982949;28;20490;-76
2022/07/25 14:08:56;;;;;;;6.30;5.15;;;;;;;;;;4987877;28;20053;-78
2022/07/25 14:11:41;;;;;;;8.82;5.25;;;;;;;;;;4968143;28;20480;-77
2022/07/25 14:14:27;;;;;;;8.65;5.95;;;;;;;;;;4998687;28;20030;-75
2022/07/25 14:17:12;;;;;;;10.20;6.35;;;;;;;;;;5006874;28;20136;-74
2022/07/25 14:19:58;;;;;;;6.65;5.80;;;;;;;;;;4997427;28;20042;-73
2022/07/25 14:22:44;;;;;;;7.70;6.07;;;;;;;;;;4976741;28;20112;-71
2022/07/25 14:25:30;;;;;;;9.23;6.22;;;;;;;;;;5005933;28;20125;-70
2022/07/25 14:28:15;;;;;;;8.77;5.93;;;;;;;;;;4994950;28;20115;-71
2022/07/25 14:31:01;;;;;;;15.20;6.05;;;;;;;;;;4983612;28;20038;-69
2022/07/25 14:33:47;;;;;;;8.80;5.93;;;;;;;;;;5004803;28;20033;-71
2022/07/25 14:36:42;;;;;;;11.60;6.78;;;;;;;;;;4964877;28;20037;-70
2022/07/25 14:39:27;;;;;;;8.88;6.22;;;;;;;;;;5002100;28;20038;-72
2022/07/25 14:42:13;;;;;;;6.88;6.15;;;;;;;;;;4970773;28;20041;-76
2022/07/25 14:44:59;;;;;;;8.65;6.45;;;;;;;;;;4940685;28;20086;-75
2022/07/25 14:47:44;;;;;;;8.70;6.25;;;;;;;;;;4997666;28;20036;-74
2022/07/25 14:50:30;;;;;;;9.15;6.60;;;;;;;;;;5006584;28;20131;-74
2022/07/25 14:53:15;;;;;;;7.95;7.10;;;;;;;;;;4973023;28;20034;-75
2022/07/25 14:56:02;;;;;;;8.80;7.05;;;;;;;;;;4972978;28;20429;-74
2022/07/25 14:58:48;;;;;;;9.25;6.75;;;;;;;;;;4975756;28;20057;-71
2022/07/25 15:01:33;;;;;;;7.65;6.78;;;;;;;;;;5000999;28;20025;-73
2022/07/25 15:04:20;;;;;;;9.63;7.15;;;;;;;;;;5006219;28;24932;-72
2022/07/25 15:07:06;;;;;;;10.02;6.75;;;;;;;;;;4996138;28;20041;-73
2022/07/25 15:09:51;;;;;;;8.68;6.95;;;;;;;;;;4967670;28;20124;-71
2022/07/25 15:12:37;;;;;;;7.47;6.40;;;;;;;;;;4936847;28;20057;-73
2022/07/25 15:15:23;;;;;;;9.20;6.22;;;;;;;;;;4994480;28;20468;-68
2022/07/25 15:18:08;;;;;;;9.55;6.20;;;;;;;;;;5012939;28;20543;-73
2022/07/25 15:20:54;;;;;;;9.45;6.80;;;;;;;;;;5003661;28;20026;-71
2022/07/25 15:23:40;;;;;;;8.35;6.30;;;;;;;;;;4999392;28;20343;-72
2022/07/25 15:26:25;;;;;;;9.00;6.28;;;;;;;;;;4964695;28;20046;-72
2022/07/25 15:29:13;;;;;;;8.82;6.00;;;;;;;;;;4974834;28;20037;-73
2022/07/25 15:32:02;;;;;;;8.60;7.07;;;;;;;;;;4999814;28;20481;-73
2022/07/25 15:34:47;;;;;;;9.25;6.50;;;;;;;;;;4947939;28;20038;-71
2022/07/25 15:37:33;;;;;;;7.63;5.85;;;;;;;;;;4946519;28;20035;-75
2022/07/25 15:40:19;;;;;;;10.25;6.47;;;;;;;;;;4923577;28;20162;-75
2022/07/25 15:43:04;;;;;;;10.38;6.57;;;;;;;;;;4897883;29;20060;-73
2022/07/25 15:45:50;;;;;;;13.35;6.65;;;;;;;;;;4918274;29;20046;-72
2022/07/25 15:48:35;;;;;;;9.02;5.85;;;;;;;;;;4929672;29;20157;-74
2022/07/25 15:51:21;;;;;;;8.80;6.47;;;;;;;;;;4945644;28;20031;-75
2022/07/25 15:54:07;;;;;;;10.13;6.70;;;;;;;;;;4960865;28;20101;-75
2022/07/25 15:56:53;;;;;;;9.27;6.75;;;;;;;;;;4971926;28;20370;-73
2022/07/25 15:59:38;;;;;;;7.22;6.05;;;;;;;;;;4957243;28;20053;-73
2022/07/25 16:02:24;;;;;;;10.15;5.88;;;;;;;;;;4951708;28;20518;-74
2022/07/25 16:05:09;;;;;;;9.32;6.15;;;;;;;;;;4930434;28;20066;-74
2022/07/25 16:07:55;;;;;;;8.75;6.47;;;;;;;;;;4936437;28;20374;-73
2022/07/25 16:10:41;;;;;;;9.93;6.40;;;;;;;;;;4943142;28;20419;-70
2022/07/25 16:13:28;;;;;;;7.25;6.10;;;;;;;;;;4943094;28;20039;-78
2022/07/25 16:16:14;;;;;;;7.30;5.85;;;;;;;;;;4947546;28;20034;-76
2022/07/25 16:18:59;;;;;;;8.63;6.45;;;;;;;;;;4989506;28;20306;-76
2022/07/25 16:21:45;;;;;;;10.25;6.72;;;;;;;;;;4966889;28;20066;-83
2022/07/25 16:24:31;;;;;;;9.43;5.90;;;;;;;;;;4960543;28;20038;-75
2022/07/25 16:27:16;;;;;;;10.82;7.03;;;;;;;;;;4988635;28;20036;-75
2022/07/25 16:30:02;;;;;;;8.43;6.63;;;;;;;;;;4993099;28;20166;-73